Time;durP1;ratioP1;P1;durP2;ratioP2;P2;SDS_P1;SDS_P2;PMS_P1;PMS_P2;Temp;Humidity;BMP_temperature;BMP_pressure;BME280_temperature;BME280_humidity;BME280_pressure;Samples;Min_cycle;Max_cycle;Signal;HPM_P1;HPM_P2
2023/04/14 00:01:14;;;;;;;3.12;1.70;;;;;;;24.94;35.77;98196.41;4346251;33;34024;-61
2023/04/14 00:03:42;;;;;;;2.53;1.52;;;;;;;24.93;35.80;98181.97;4331118;33;34485;-61
2023/04/14 00:06:10;;;;;;;4.87;2.00;;;;;;;24.92;35.79;98171.34;4318895;33;32508;-60
2023/04/14 00:08:37;;;;;;;8.13;2.08;;;;;;;24.90;35.77;98165.31;4317218;33;33668;-61
2023/04/14 00:11:05;;;;;;;2.78;1.60;;;;;;;24.88;35.75;98168.31;4345760;33;33925;-62
2023/04/14 00:13:32;;;;;;;2.78;1.60;;;;;;;24.87;35.80;98161.25;4332205;33;33967;-61
2023/04/14 00:16:00;;;;;;;4.57;1.80;;;;;;;24.86;35.75;98166.97;4332804;33;34033;-61
2023/04/14 00:18:27;;;;;;;3.83;1.60;;;;;;;24.85;35.79;98173.50;4346079;33;34064;-61
2023/04/14 00:20:55;;;;;;;3.92;1.83;;;;;;;24.85;35.77;98178.97;4332296;33;33889;-61
2023/04/14 00:23:22;;;;;;;4.47;1.85;;;;;;;24.84;35.80;98182.78;4346023;33;34596;-61
2023/04/14 00:25:50;;;;;;;4.53;1.90;;;;;;;24.82;35.77;98182.25;4332533;33;33181;-61
2023/04/14 00:28:17;;;;;;;3.97;1.98;;;;;;;24.80;35.81;98177.06;4332181;33;33777;-61
2023/04/14 00:30:46;;;;;;;3.80;1.70;;;;;;;24.81;35.82;98180.63;4332763;33;34620;-61
2023/04/14 00:33:13;;;;;;;4.25;1.80;;;;;;;24.80;35.84;98181.69;4332490;33;33838;-61
2023/04/14 00:35:41;;;;;;;4.53;1.95;;;;;;;24.77;35.90;98177.63;4333698;33;34038;-61
2023/04/14 00:38:08;;;;;;;4.43;1.70;;;;;;;24.78;35.96;98183.91;4344416;33;33901;-61
2023/04/14 00:40:36;;;;;;;7.32;1.98;;;;;;;24.75;35.89;98174.34;4332440;33;33945;-61
2023/04/14 00:43:03;;;;;;;3.90;1.60;;;;;;;24.74;35.86;98166.44;4344261;33;34807;-61
2023/04/14 00:45:31;;;;;;;4.68;1.35;;;;;;;24.72;35.86;98169.47;4344661;33;34055;-61
2023/04/14 00:47:59;;;;;;;4.30;1.75;;;;;;;24.69;35.87;98162.63;4344479;33;33571;-61
2023/04/14 00:50:26;;;;;;;5.68;1.90;;;;;;;24.70;35.90;98160.72;4345482;32;34007;-61
2023/04/14 00:52:54;;;;;;;7.22;1.70;;;;;;;24.68;35.87;98158.28;4332408;33;33751;-61
2023/04/14 00:55:22;;;;;;;3.28;1.90;;;;;;;24.68;35.87;98154.72;4345836;33;32874;-61
2023/04/14 00:57:50;;;;;;;3.42;1.45;;;;;;;24.67;35.90;98148.47;4345298;33;34005;-61
2023/04/14 01:00:18;;;;;;;3.03;1.62;;;;;;;24.67;35.92;98147.66;4345787;33;33417;-61
2023/04/14 01:02:46;;;;;;;4.55;1.90;;;;;;;24.65;35.92;98137.00;4345354;33;34026;-61
2023/04/14 01:05:14;;;;;;;4.22;1.73;;;;;;;24.64;36.00;98132.63;4345346;33;33581;-61
2023/04/14 01:07:42;;;;;;;3.87;1.85;;;;;;;24.62;35.98;98137.56;4345426;33;34669;-61
2023/04/14 01:10:10;;;;;;;4.55;1.83;;;;;;;24.61;35.94;98129.62;4345296;33;33696;-61
2023/04/14 01:12:53;;;;;;;5.45;1.83;;;;;;;24.60;35.97;98112.44;4350073;33;34295;-61
2023/04/14 01:15:33;;;;;;;2.90;1.40;;;;;;;24.59;36.01;98096.37;4350455;33;33214;-61
2023/04/14 01:18:15;;;;;;;4.60;1.50;;;;;;;24.58;36.08;98083.84;4348932;33;33829;-61
2023/04/14 01:20:43;;;;;;;3.00;1.52;;;;;;;24.60;36.07;98071.53;4337045;33;34083;-61
2023/04/14 01:23:25;;;;;;;2.65;1.65;;;;;;;24.57;36.06;98063.91;4349018;33;33596;-61
2023/04/14 01:26:12;;;;;;;3.22;1.70;;;;;;;24.57;36.03;98069.38;4348429;33;33491;-61
2023/04/14 01:29:03;;;;;;;7.53;1.73;;;;;;;24.57;36.00;98057.66;4350201;33;33881;-61
2023/04/14 01:31:33;;;;;;;2.50;1.58;;;;;;;24.57;36.00;98050.28;4349073;33;34763;-61
2023/04/14 01:34:14;;;;;;;;;;;;;;;24.53;36.06;98057.41;4336893;33;33712;-61
2023/04/14 01:36:43;;;;;;;4.28;1.30;;;;;;;24.63;35.89;98053.84;4348705;33;33381;-61
2023/04/14 01:39:14;;;;;;;5.47;1.85;;;;;;;24.53;36.02;98065.59;4349046;33;34629;-61
2023/04/14 01:41:43;;;;;;;4.18;1.80;;;;;;;24.51;36.04;98067.75;4348640;33;34694;-60
2023/04/14 01:44:11;;;;;;;3.47;1.70;;;;;;;24.50;36.04;98062.59;4325004;33;34431;-61
2023/04/14 01:46:38;;;;;;;3.80;1.45;;;;;;;24.50;36.04;98049.75;4348656;33;33585;-61
2023/04/14 01:49:06;;;;;;;2.85;1.60;;;;;;;24.50;36.05;98054.41;4348137;33;34648;-61
2023/04/14 01:51:35;;;;;;;5.50;1.52;;;;;;;24.49;36.04;98060.94;4349971;33;33907;-61
2023/04/14 01:54:02;;;;;;;4.68;1.87;;;;;;;24.48;36.06;98057.41;4336298;33;32878;-61
2023/04/14 01:56:30;;;;;;;4.90;1.92;;;;;;;24.46;36.16;98059.56;4348353;33;33726;-61
2023/04/14 01:58:58;;;;;;;6.12;2.10;;;;;;;24.45;36.18;98040.78;4348570;33;34674;-61
2023/04/14 02:01:26;;;;;;;3.22;1.60;;;;;;;24.43;36.19;98030.97;4348507;33;33861;-61
2023/04/14 02:03:54;;;;;;;4.60;1.70;;;;;;;24.44;36.21;98020.88;4348069;33;33144;-61
2023/04/14 02:06:22;;;;;;;2.20;1.27;;;;;;;24.43;36.18;98020.06;4349585;33;34066;-61
2023/04/14 02:08:50;;;;;;;3.87;1.87;;;;;;;24.43;36.21;98020.06;4348449;33;34629;-62
2023/04/14 02:11:18;;;;;;;3.00;1.62;;;;;;;24.42;36.25;98023.88;4347604;33;34005;-61
2023/04/14 02:13:47;;;;;;;3.72;1.52;;;;;;;24.42;36.21;98025.78;4336182;33;33382;-61
2023/04/14 02:16:15;;;;;;;3.90;1.73;;;;;;;24.40;36.23;98034.25;4348120;33;33304;-61
2023/04/14 02:18:42;;;;;;;3.37;1.60;;;;;;;24.39;36.28;98029.88;4347689;33;33992;-61
2023/04/14 02:21:10;;;;;;;3.50;1.55;;;;;;;24.39;36.28;98039.97;4336231;33;32927;-61
2023/04/14 02:23:37;;;;;;;4.47;2.00;;;;;;;24.38;36.28;98041.03;4332726;33;32772;-61
2023/04/14 02:26:16;;;;;;;3.67;1.75;;;;;;;24.38;36.31;98049.22;4332761;33;32747;-61
2023/04/14 02:28:56;;;;;;;3.55;1.73;;;;;;;24.39;36.30;98053.59;4333438;33;33444;-61
2023/04/14 02:31:24;;;;;;;2.83;1.60;;;;;;;24.37;36.32;98053.06;4345455;33;34456;-61
2023/04/14 02:33:53;;;;;;;4.28;1.58;;;;;;;24.36;36.31;98057.69;4333108;33;33502;-61
2023/04/14 02:36:33;;;;;;;3.85;1.70;;;;;;;24.35;36.32;98056.03;4345192;33;33688;-62
2023/04/14 02:39:05;;;;;;;5.18;1.73;;;;;;;24.35;36.28;98047.84;4333494;33;34616;-62
2023/04/14 02:41:32;;;;;;;5.53;1.65;;;;;;;24.34;36.33;98042.66;4345390;33;34043;-61
2023/04/14 02:44:07;;;;;;;4.47;1.52;;;;;;;24.34;36.37;98043.50;4345423;33;33317;-61
2023/04/14 02:46:37;;;;;;;3.30;1.55;;;;;;;24.32;36.37;98044.84;4345531;33;33661;-60
2023/04/14 02:49:06;;;;;;;3.78;1.50;;;;;;;24.32;36.39;98053.84;4320773;33;33880;-61
2023/04/14 02:51:34;;;;;;;5.28;1.67;;;;;;;24.32;36.42;98048.38;4345457;33;33411;-61
2023/04/14 02:54:03;;;;;;;6.15;1.92;;;;;;;24.31;36.43;98043.22;4333342;33;33710;-61
2023/04/14 02:56:31;;;;;;;3.92;1.50;;;;;;;24.31;36.47;98043.22;4333221;33;33736;-61
2023/04/14 02:58:59;;;;;;;3.10;1.52;;;;;;;24.31;36.46;98046.75;4345394;33;34750;-61
2023/04/14 03:01:27;;;;;;;5.07;1.58;;;;;;;24.30;36.43;98036.97;4345607;33;33762;-61
2023/04/14 03:03:55;;;;;;;3.62;1.60;;;;;;;24.29;36.46;98023.59;4344699;33;33655;-61
2023/04/14 03:06:23;;;;;;;3.05;1.42;;;;;;;24.29;36.46;98024.41;4320955;33;32074;-60
2023/04/14 03:08:50;;;;;;;3.40;1.83;;;;;;;24.28;36.48;98027.41;4345454;33;33526;-61
2023/04/14 03:11:20;;;;;;;5.10;1.65;;;;;;;24.27;36.46;98021.16;4332774;33;33269;-61
2023/04/14 03:13:49;;;;;;;4.12;1.73;;;;;;;24.27;36.46;98014.88;4345528;33;33522;-61
2023/04/14 03:16:19;;;;;;;4.07;1.60;;;;;;;24.27;36.49;98012.16;4333263;33;33533;-61
2023/04/14 03:18:49;;;;;;;;;;;;;;;24.27;36.47;98009.44;4345368;33;32806;-61
2023/04/14 03:21:18;;;;;;;;;;;;;;;24.35;36.28;98006.97;4346997;33;34008;-61
2023/04/14 03:23:45;;;;;;;4.78;1.90;;;;;;;24.36;36.27;98000.44;4345425;33;34830;-61
2023/04/14 03:26:17;;;;;;;6.25;1.50;;;;;;;24.27;36.45;97982.19;4345030;33;33236;-60
2023/04/14 03:28:46;;;;;;;3.95;1.90;;;;;;;24.23;36.57;97971.00;4333747;33;33917;-61
2023/04/14 03:31:15;;;;;;;6.75;1.95;;;;;;;24.22;36.58;97977.56;4344470;33;34045;-61
2023/04/14 03:33:45;;;;;;;3.05;1.42;;;;;;;24.22;36.58;97999.34;4344147;33;33835;-61
2023/04/14 03:36:14;;;;;;;4.20;1.83;;;;;;;24.22;36.56;98026.59;4332769;33;34324;-61
2023/04/14 03:38:42;;;;;;;4.40;1.50;;;;;;;24.22;36.59;98028.50;4332547;33;34857;-61
2023/04/14 03:41:09;;;;;;;4.85;1.48;;;;;;;24.21;36.60;98027.69;4333190;33;33851;-60
2023/04/14 03:43:37;;;;;;;4.72;1.65;;;;;;;24.21;36.61;98029.63;4342441;33;33848;-62
2023/04/14 03:46:05;;;;;;;4.20;1.60;;;;;;;24.21;36.63;98051.41;4342701;32;33834;-62
2023/04/14 03:48:35;;;;;;;3.90;1.27;;;;;;;24.20;36.58;98083.28;4341693;33;34052;-62
2023/04/14 03:51:03;;;;;;;3.05;1.60;;;;;;;24.19;36.55;98082.47;4344701;33;33983;-62
2023/04/14 03:53:33;;;;;;;3.92;1.80;;;;;;;24.18;36.39;98075.38;4344794;33;33888;-62
2023/04/14 03:56:00;;;;;;;4.40;1.67;;;;;;;24.16;36.29;98074.84;4345199;33;34162;-61
2023/04/14 03:58:28;;;;;;;3.45;1.73;;;;;;;24.17;36.14;98068.31;4344635;33;34236;-61
2023/04/14 04:00:56;;;;;;;4.75;2.40;;;;;;;24.14;36.11;98070.75;4332580;33;34172;-61
2023/04/14 04:03:23;;;;;;;3.60;1.70;;;;;;;24.13;36.07;98069.12;4332707;33;34576;-61
2023/04/14 04:05:52;;;;;;;6.07;1.83;;;;;;;24.12;36.04;98056.59;4344767;33;34049;-62
2023/04/14 04:08:20;;;;;;;3.83;1.67;;;;;;;24.10;36.02;98053.31;4320233;33;33781;-62
2023/04/14 04:10:49;;;;;;;3.40;1.65;;;;;;;24.09;35.97;98044.31;4346298;33;34039;-62
2023/04/14 04:13:17;;;;;;;5.45;1.58;;;;;;;24.06;35.96;98041.31;4332366;33;33691;-62
2023/04/14 04:15:45;;;;;;;4.70;1.73;;;;;;;24.06;35.92;98036.72;4344825;33;34319;-62
2023/04/14 04:18:14;;;;;;;3.28;1.62;;;;;;;24.05;35.89;98036.97;4320654;33;33669;-61
2023/04/14 04:20:42;;;;;;;5.57;1.62;;;;;;;24.04;35.88;98044.31;4345051;33;33933;-61
2023/04/14 04:23:10;;;;;;;11.98;2.65;;;;;;;24.04;35.83;98033.44;4344550;33;33578;-63
2023/04/14 04:25:38;;;;;;;14.32;2.70;;;;;;;24.03;35.84;98031.78;4344891;33;34432;-62
2023/04/14 04:28:06;;;;;;;21.37;2.60;;;;;;;24.04;35.91;98014.34;4332574;33;33444;-63
2023/04/14 04:30:35;;;;;;;15.27;2.95;;;;;;;24.04;35.96;98008.91;4345979;33;33469;-63
2023/04/14 04:33:03;;;;;;;8.98;2.40;;;;;;;24.03;35.98;98009.19;4344668;33;33677;-64
2023/04/14 04:35:31;;;;;;;13.25;2.65;;;;;;;24.01;35.99;97998.53;4344580;33;33406;-63
2023/04/14 04:38:02;;;;;;;12.50;2.97;;;;;;;24.01;35.98;97997.72;4319978;33;32915;-62
2023/04/14 04:40:40;;;;;;;10.63;2.47;;;;;;;23.99;35.99;97995.28;4344631;33;34671;-63
2023/04/14 04:43:08;;;;;;;8.88;2.53;;;;;;;24.00;35.98;98001.56;4332451;33;32817;-63
2023/04/14 04:45:57;;;;;;;9.95;2.28;;;;;;;23.99;35.99;98002.66;4342054;33;34082;-63
2023/04/14 04:48:25;;;;;;;8.18;1.83;;;;;;;24.00;35.97;98021.44;4342549;33;32922;-62
2023/04/14 04:50:53;;;;;;;6.85;2.15;;;;;;;23.97;35.99;98030.16;4342751;33;32854;-63
2023/04/14 04:53:20;;;;;;;8.68;2.30;;;;;;;23.97;36.00;98022.00;4317806;33;33161;-63
2023/04/14 04:55:48;;;;;;;8.02;1.90;;;;;;;23.95;36.01;98012.44;4342780;33;33054;-63
2023/04/14 04:58:16;;;;;;;10.10;2.53;;;;;;;23.96;35.99;98014.06;4344276;33;33628;-62
2023/04/14 05:00:43;;;;;;;4.05;2.00;;;;;;;23.94;36.00;98025.25;4345305;33;34149;-63
2023/04/14 05:03:10;;;;;;;5.85;2.65;;;;;;;23.95;35.99;98037.78;4344590;33;33257;-63
2023/04/14 05:05:38;;;;;;;5.65;2.12;;;;;;;23.95;35.99;98039.69;4345101;33;32976;-61
2023/04/14 05:08:07;;;;;;;5.28;1.92;;;;;;;23.95;35.98;98050.59;4331359;33;33456;-62
2023/04/14 05:10:37;;;;;;;7.28;2.42;;;;;;;23.93;35.97;98048.97;4345574;33;33935;-63
2023/04/14 05:13:05;;;;;;;6.00;2.03;;;;;;;23.93;35.96;98056.31;4344032;33;34129;-62
2023/04/14 05:15:33;;;;;;;4.97;2.03;;;;;;;23.92;35.95;98044.59;4345122;33;34167;-62
2023/04/14 05:18:00;;;;;;;6.12;2.10;;;;;;;23.92;35.94;98047.34;4344149;33;32862;-62
2023/04/14 05:20:28;;;;;;;5.47;2.35;;;;;;;23.92;35.94;98052.78;4345736;33;33540;-63
2023/04/14 05:22:56;;;;;;;5.30;1.90;;;;;;;23.92;35.95;98054.66;4344827;33;34211;-62
2023/04/14 05:25:23;;;;;;;5.55;1.92;;;;;;;23.90;35.96;98054.94;4345601;33;33000;-63
2023/04/14 05:27:51;;;;;;;5.90;2.10;;;;;;;23.89;35.97;98053.31;4343989;33;33768;-62
2023/04/14 05:30:19;;;;;;;3.33;1.60;;;;;;;23.89;35.98;98049.78;4343566;33;33895;-63
2023/04/14 05:32:46;;;;;;;6.30;1.92;;;;;;;23.89;35.96;98044.31;4345141;33;34187;-64
2023/04/14 05:35:14;;;;;;;3.97;2.15;;;;;;;23.89;35.96;98047.06;4345022;33;34162;-63
2023/04/14 05:37:42;;;;;;;7.55;2.08;;;;;;;23.88;35.96;98048.16;4331204;33;33826;-63
2023/04/14 05:40:10;;;;;;;6.05;2.00;;;;;;;23.87;35.96;98046.50;4319744;33;34100;-62
2023/04/14 05:42:39;;;;;;;5.70;1.75;;;;;;;23.87;35.96;98049.22;4344806;33;33675;-63
2023/04/14 05:45:08;;;;;;;4.57;1.83;;;;;;;23.86;35.96;98053.03;4331571;33;34163;-63
2023/04/14 05:47:36;;;;;;;4.78;1.95;;;;;;;23.86;35.93;98067.47;4331667;33;34861;-63
2023/04/14 05:50:05;;;;;;;4.57;1.83;;;;;;;23.85;35.95;98070.47;4331465;33;34664;-63
2023/04/14 05:52:32;;;;;;;5.97;2.30;;;;;;;23.85;35.95;98073.19;4344533;33;33960;-63
2023/04/14 05:54:59;;;;;;;5.10;1.77;;;;;;;23.85;35.94;98071.28;4331471;33;33379;-62
2023/04/14 05:57:27;;;;;;;4.70;1.83;;;;;;;23.84;35.94;98066.94;4319839;33;33858;-63
2023/04/14 05:59:55;;;;;;;3.17;1.70;;;;;;;23.84;35.92;98060.66;4333385;33;33624;-63
2023/04/14 06:02:24;;;;;;;5.55;2.08;;;;;;;23.84;35.91;98060.66;4346467;33;34216;-63
2023/04/14 06:04:52;;;;;;;5.40;2.00;;;;;;;23.84;35.91;98056.03;4347014;33;33231;-61
2023/04/14 06:07:20;;;;;;;5.20;2.15;;;;;;;23.85;35.92;98051.41;4346499;33;34562;-63
2023/04/14 06:09:47;;;;;;;5.85;1.98;;;;;;;23.85;35.98;98051.41;4333451;33;33817;-63
2023/04/14 06:12:15;;;;;;;4.43;2.10;;;;;;;23.87;36.08;98049.22;4321117;33;34546;-62
2023/04/14 06:14:43;;;;;;;3.75;1.90;;;;;;;23.87;36.13;98052.75;4333178;33;34166;-63
2023/04/14 06:17:10;;;;;;;4.80;1.80;;;;;;;23.88;36.09;98053.59;4333707;33;33842;-63
2023/04/14 06:19:38;;;;;;;5.37;2.00;;;;;;;23.89;36.12;98045.13;4333477;33;33679;-63
2023/04/14 06:22:07;;;;;;;4.37;1.90;;;;;;;23.91;36.11;98044.84;4333027;33;33240;-63
2023/04/14 06:24:34;;;;;;;4.87;1.80;;;;;;;23.92;36.13;98038.31;4333492;33;33393;-63
2023/04/14 06:27:02;;;;;;;3.45;1.77;;;;;;;23.93;36.16;98031.81;4346627;33;33095;-62
2023/04/14 06:29:30;;;;;;;3.75;1.85;;;;;;;23.94;36.18;98030.72;4320957;33;33921;-62
2023/04/14 06:31:59;;;;;;;4.72;1.98;;;;;;;23.95;36.21;98031.53;4346696;33;33776;-62
2023/04/14 06:34:27;;;;;;;6.15;1.85;;;;;;;23.96;36.22;98039.41;4333537;33;34285;-62
2023/04/14 06:36:55;;;;;;;3.03;1.58;;;;;;;23.97;36.23;98024.72;4341782;33;32331;-62
2023/04/14 06:39:22;;;;;;;4.93;1.73;;;;;;;23.99;36.25;98027.16;4345527;33;33821;-63
2023/04/14 06:41:50;;;;;;;4.55;1.83;;;;;;;23.99;36.28;98014.34;4346499;33;33579;-61
2023/04/14 06:44:17;;;;;;;5.35;1.60;;;;;;;24.00;36.31;98017.91;4344908;33;32801;-61
2023/04/14 06:46:45;;;;;;;4.93;1.87;;;;;;;23.99;36.32;98014.34;4321201;33;32455;-62
2023/04/14 06:49:14;;;;;;;7.45;2.12;;;;;;;24.01;36.33;98012.16;4344986;33;33857;-62
2023/04/14 06:51:42;;;;;;;4.55;1.80;;;;;;;24.02;36.38;98010.28;4346164;33;33857;-61
2023/04/14 06:54:09;;;;;;;3.65;1.60;;;;;;;24.02;36.40;98008.38;4345283;33;33043;-62
2023/04/14 06:56:37;;;;;;;4.30;1.90;;;;;;;24.03;36.42;98018.16;4346871;33;33455;-63
2023/04/14 06:59:04;;;;;;;3.10;1.73;;;;;;;24.04;36.45;98019.00;4345230;33;33613;-63
2023/04/14 07:01:32;;;;;;;3.45;1.60;;;;;;;24.05;36.47;98029.59;4345467;33;33522;-63
2023/04/14 07:04:02;;;;;;;5.47;2.00;;;;;;;24.06;36.48;98027.69;4345471;33;33441;-63
2023/04/14 07:06:33;;;;;;;4.68;1.77;;;;;;;24.06;36.48;98025.81;4346230;33;33881;-63
2023/04/14 07:09:01;;;;;;;5.25;1.83;;;;;;;24.07;36.47;98024.72;4344877;33;32937;-63
2023/04/14 07:11:29;;;;;;;4.18;1.80;;;;;;;24.07;36.46;98024.72;4331165;33;33111;-62
2023/04/14 07:13:57;;;;;;;3.47;1.60;;;;;;;24.07;36.45;98019.25;4342472;33;34159;-62
2023/04/14 07:16:26;;;;;;;3.75;1.60;;;;;;;24.08;36.43;98020.09;4332854;33;32954;-61
2023/04/14 07:18:53;;;;;;;3.33;1.48;;;;;;;24.10;36.41;98028.78;4345264;33;33895;-61
2023/04/14 07:21:21;;;;;;;3.25;1.75;;;;;;;24.10;36.39;98020.59;4344826;33;34670;-62
2023/04/14 07:23:48;;;;;;;4.93;1.80;;;;;;;24.11;36.39;98033.16;4346325;33;34220;-61
2023/04/14 07:26:16;;;;;;;4.82;1.80;;;;;;;24.11;36.37;98020.34;4332794;33;33976;-62
2023/04/14 07:28:43;;;;;;;4.47;1.67;;;;;;;24.11;36.35;98011.37;4332582;33;33065;-63
2023/04/14 07:31:11;;;;;;;3.60;1.70;;;;;;;24.11;36.37;98012.19;4346001;33;33418;-61
2023/04/14 07:33:39;;;;;;;4.45;1.80;;;;;;;24.12;36.37;98013.00;4345089;33;34271;-61
2023/04/14 07:36:08;;;;;;;3.90;1.80;;;;;;;24.12;36.37;98007.53;4345535;33;34277;-62
2023/04/14 07:38:37;;;;;;;3.60;1.90;;;;;;;24.11;36.37;98009.47;4309207;33;33861;-61
2023/04/14 07:41:05;;;;;;;4.93;1.92;;;;;;;24.13;36.35;97996.37;4346345;33;33699;-63
2023/04/14 07:43:35;;;;;;;3.12;1.73;;;;;;;24.13;36.37;98004.53;4332695;33;33281;-62
2023/04/14 07:46:03;;;;;;;3.37;1.87;;;;;;;24.13;36.37;98004.53;4333246;33;33513;-62
2023/04/14 07:48:35;;;;;;;4.00;1.60;;;;;;;24.13;36.41;98009.16;4333053;32;33639;-63
2023/04/14 07:51:03;;;;;;;3.53;1.75;;;;;;;24.14;36.45;98003.44;4345869;33;34420;-62
2023/04/14 07:53:31;;;;;;;5.78;2.08;;;;;;;24.14;36.53;98000.72;4348580;32;33594;-63
2023/04/14 07:55:58;;;;;;;5.07;1.77;;;;;;;24.15;36.60;98002.38;4348027;32;33944;-63
2023/04/14 07:58:26;;;;;;;6.53;1.80;;;;;;;24.15;36.65;98004.25;4345613;33;34041;-61
2023/04/14 08:00:56;;;;;;;5.60;1.83;;;;;;;24.17;36.70;98015.72;4346456;33;33785;-61
2023/04/14 08:03:41;;;;;;;5.85;2.00;;;;;;;24.18;36.72;98009.97;4816280;27;33369;31
2023/04/14 08:06:12;;;;;;;5.72;1.87;;;;;;;24.17;36.75;98011.06;4326408;33;33614;-60
2023/04/14 08:08:39;;;;;;;7.25;2.17;;;;;;;24.17;36.75;98008.34;4327369;33;33721;-63
2023/04/14 08:11:07;;;;;;;14.00;2.92;;;;;;;24.18;36.80;98001.00;4328937;33;33872;-63
2023/04/14 08:13:34;;;;;;;14.38;2.53;;;;;;;24.18;36.95;97996.34;4302953;33;34371;-63
2023/04/14 08:16:02;;;;;;;9.25;2.33;;;;;;;24.18;37.06;97985.44;4304067;33;33812;-62
2023/04/14 08:18:30;;;;;;;8.85;2.50;;;;;;;24.17;37.05;97981.09;4326691;33;33907;-62
2023/04/14 08:20:58;;;;;;;8.63;1.98;;;;;;;24.18;36.98;97992.81;4301703;33;32847;-63
2023/04/14 08:23:25;;;;;;;6.30;2.37;;;;;;;24.18;36.91;97990.91;4303990;33;33261;-63
2023/04/14 08:25:53;;;;;;;8.85;3.17;;;;;;;24.17;36.84;97992.00;4303605;33;32355;-61
2023/04/14 08:28:20;;;;;;;6.50;2.20;;;;;;;24.17;36.65;97991.19;4319509;33;33542;-62
2023/04/14 08:30:48;;;;;;;7.95;2.03;;;;;;;24.16;36.58;97982.19;4337252;33;33607;-62
2023/04/14 08:33:15;;;;;;;8.52;2.20;;;;;;;24.16;36.54;97986.84;4345744;33;33270;-62
2023/04/14 08:35:43;;;;;;;6.28;2.30;;;;;;;24.14;36.54;97992.53;4342088;33;32721;-63
2023/04/14 08:38:11;;;;;;;9.45;2.58;;;;;;;24.13;36.54;97996.37;4317161;33;33985;-62
2023/04/14 08:40:40;;;;;;;9.43;2.50;;;;;;;24.13;36.53;97988.19;4293086;33;33702;-63
2023/04/14 08:43:08;;;;;;;6.12;2.37;;;;;;;24.12;36.61;98002.91;4317463;33;33343;-63
2023/04/14 08:45:36;;;;;;;5.00;2.22;;;;;;;24.11;36.63;97998.56;4313097;33;34675;-63
2023/04/14 08:48:04;;;;;;;7.70;2.30;;;;;;;24.10;36.66;98007.81;4302820;33;33654;-63
2023/04/14 08:50:36;;;;;;;4.53;2.10;;;;;;;24.09;36.67;98017.06;4317188;33;33918;-62
2023/04/14 08:53:05;;;;;;;8.13;2.40;;;;;;;24.07;36.69;98022.00;4305396;33;33615;-62
2023/04/14 08:55:33;;;;;;;12.05;3.00;;;;;;;24.05;36.74;98018.72;4317433;33;34964;-61
2023/04/14 08:58:01;;;;;;;7.30;2.55;;;;;;;24.05;36.69;98018.72;4314987;33;34400;-61
2023/04/14 09:00:29;;;;;;;8.73;2.83;;;;;;;24.03;36.74;98010.00;4310545;33;33939;-62
2023/04/14 09:02:57;;;;;;;9.68;2.85;;;;;;;24.02;36.77;98008.38;4317874;33;33641;-63
2023/04/14 09:05:25;;;;;;;5.90;1.92;;;;;;;24.01;36.77;98016.78;4325048;33;34628;-62
2023/04/14 09:07:53;;;;;;;6.45;2.45;;;;;;;24.01;36.72;98027.69;4337916;33;33697;-63
2023/04/14 09:10:21;;;;;;;7.93;2.42;;;;;;;23.99;36.72;98021.72;4341218;33;32925;-61
2023/04/14 09:12:49;;;;;;;11.30;2.78;;;;;;;23.98;36.73;98023.62;4341368;33;33360;-61
2023/04/14 09:15:17;;;;;;;5.68;2.15;;;;;;;23.98;36.74;98023.62;4343558;33;33950;-61
2023/04/14 09:17:44;;;;;;;7.60;2.65;;;;;;;23.97;36.71;98024.72;4344173;33;33447;-62
2023/04/14 09:20:12;;;;;;;9.13;2.85;;;;;;;23.96;36.70;98036.69;4329574;33;33470;-62
2023/04/14 09:23:00;;;;;;;6.12;2.28;;;;;;;23.95;36.70;98040.50;4338866;33;34415;-61
2023/04/14 09:25:27;;;;;;;9.70;2.90;;;;;;;23.95;36.69;98045.97;4343614;33;33584;-61
2023/04/14 09:27:55;;;;;;;4.62;2.20;;;;;;;23.93;36.68;98043.50;4343411;33;33975;-63
2023/04/14 09:30:22;;;;;;;6.07;2.45;;;;;;;23.92;36.69;98041.03;4345247;33;33661;-63
2023/04/14 09:32:52;;;;;;;7.57;2.47;;;;;;;23.92;36.67;98041.03;4330875;33;33072;-61
2023/04/14 09:35:49;;;;;;;6.53;2.08;;;;;;;23.91;36.67;98047.59;4319133;33;32937;-61
2023/04/14 09:38:34;;;;;;;6.25;2.30;;;;;;;23.92;36.61;98043.75;4342212;33;34025;-62
2023/04/14 09:41:03;;;;;;;5.20;2.17;;;;;;;23.91;36.60;98050.31;4332733;33;33915;-62
2023/04/14 09:43:30;;;;;;;4.50;2.22;;;;;;;23.87;36.63;98047.31;4345922;33;32900;-62
2023/04/14 09:46:08;;;;;;;5.47;1.98;;;;;;;23.87;36.65;98043.75;4337652;33;34607;-63
2023/04/14 09:48:50;;;;;;;5.22;1.98;;;;;;;23.87;36.61;98043.75;4318857;33;33660;-62
2023/04/14 09:51:22;;;;;;;5.55;2.08;;;;;;;23.84;36.62;98034.25;4329820;33;33602;-61
2023/04/14 09:53:51;;;;;;;6.75;2.60;;;;;;;23.85;36.61;98037.78;4324358;33;33126;-63
2023/04/14 09:56:20;;;;;;;6.47;2.53;;;;;;;23.83;36.62;98029.09;4323093;33;34779;-63
2023/04/14 09:58:47;;;;;;;5.00;2.40;;;;;;;23.84;36.57;98030.72;4345709;33;33863;-62
2023/04/14 10:01:16;;;;;;;4.32;2.20;;;;;;;23.83;36.57;98029.09;4340495;33;33158;-63
2023/04/14 10:03:48;;;;;;;7.10;2.20;;;;;;;23.82;36.58;98035.59;4330282;33;33365;-62
2023/04/14 10:06:19;;;;;;;7.03;2.30;;;;;;;23.83;36.56;98040.78;4335937;33;34390;-61
2023/04/14 10:08:50;;;;;;;6.12;2.15;;;;;;;23.82;36.55;98046.50;4321817;33;34769;-62
2023/04/14 10:11:26;;;;;;;5.22;2.03;;;;;;;23.80;36.56;98048.69;4315248;33;35236;-61
2023/04/14 10:13:59;;;;;;;7.37;2.80;;;;;;;23.80;36.55;98052.22;4318887;33;34390;-62
2023/04/14 10:16:26;;;;;;;5.85;2.12;;;;;;;23.80;36.55;98048.69;4317694;33;33776;-60
2023/04/14 10:18:56;;;;;;;5.18;2.10;;;;;;;23.78;36.55;98054.41;4329798;33;34006;-63
2023/04/14 10:21:24;;;;;;;6.62;1.95;;;;;;;23.78;36.53;98048.13;4318998;33;33918;-61
2023/04/14 10:23:51;;;;;;;5.93;2.20;;;;;;;23.78;36.53;98046.22;4312358;33;33324;-61
2023/04/14 10:26:19;;;;;;;5.05;1.92;;;;;;;23.78;36.52;98039.94;4316878;32;33151;-61
2023/04/14 10:28:48;;;;;;;7.53;2.03;;;;;;;23.75;36.52;98046.75;4343229;32;33661;-62
2023/04/14 10:31:28;;;;;;;5.28;2.17;;;;;;;23.75;36.53;98040.50;4318539;33;33492;-64
2023/04/14 10:33:55;;;;;;;3.97;1.90;;;;;;;23.77;36.49;98043.75;4311102;33;33984;-61
2023/04/14 10:36:27;;;;;;;5.70;1.95;;;;;;;23.77;36.47;98043.75;4320032;33;34288;-62
2023/04/14 10:39:00;;;;;;;4.62;2.00;;;;;;;23.74;36.49;98044.31;4326223;33;33920;-63
2023/04/14 10:41:50;;;;;;;5.05;1.98;;;;;;;23.73;36.49;98048.13;4326896;33;33822;-64
2023/04/14 10:44:33;;;;;;;3.17;1.67;;;;;;;23.74;36.46;98050.59;4318247;33;33123;-61
2023/04/14 10:47:03;;;;;;;5.45;2.20;;;;;;;23.75;36.46;98054.12;4323847;33;34507;-61
2023/04/14 10:49:39;;;;;;;4.95;1.80;;;;;;;23.71;36.47;98044.84;4322294;33;34825;-61
2023/04/14 10:52:15;;;;;;;3.75;1.80;;;;;;;23.72;36.45;98054.66;4318594;33;33886;-63
2023/04/14 10:55:08;;;;;;;4.93;1.90;;;;;;;23.73;36.45;98050.84;4341764;33;33902;-62
2023/04/14 10:57:39;;;;;;;4.53;2.10;;;;;;;23.71;36.45;98050.31;4320091;33;33851;-64
2023/04/14 11:00:24;;;;;;;5.78;2.17;;;;;;;23.69;36.47;98053.31;4307138;33;33831;-64
2023/04/14 11:02:58;;;;;;;4.28;2.30;;;;;;;23.71;36.44;98042.13;4318172;33;34501;-62
2023/04/14 11:05:26;;;;;;;4.37;2.08;;;;;;;23.68;36.46;98047.00;4326378;33;33305;-62
2023/04/14 11:07:55;;;;;;;5.78;1.92;;;;;;;23.68;36.45;98035.31;4331641;33;33659;-61
2023/04/14 11:10:24;;;;;;;5.43;2.25;;;;;;;23.66;36.46;98038.31;4318265;33;33890;-60
2023/04/14 11:13:07;;;;;;;4.78;2.20;;;;;;;23.66;36.47;98035.59;4330446;33;33599;-61
2023/04/14 11:15:56;;;;;;;4.85;1.90;;;;;;;23.67;36.43;98041.84;4330479;33;32874;-61
2023/04/14 11:18:30;;;;;;;4.65;2.33;;;;;;;23.68;36.43;98035.31;4329857;33;34434;-61
2023/04/14 11:21:05;;;;;;;3.60;1.90;;;;;;;23.65;36.47;98031.22;4331809;33;33748;-62
2023/04/14 11:23:33;;;;;;;5.90;2.35;;;;;;;23.64;36.46;98028.75;4330315;33;32815;-60
2023/04/14 11:26:03;;;;;;;4.07;1.85;;;;;;;23.64;36.45;98026.87;4339718;33;33427;-61
2023/04/14 11:28:35;;;;;;;5.07;2.17;;;;;;;23.62;36.44;98023.56;4344911;33;33982;-61
2023/04/14 11:31:05;;;;;;;3.12;1.90;;;;;;;23.64;36.43;98017.88;4344956;33;34004;-61
2023/04/14 11:33:34;;;;;;;4.28;2.03;;;;;;;23.63;36.43;98019.75;4344814;33;34472;-61
2023/04/14 11:36:03;;;;;;;4.18;2.10;;;;;;;23.63;36.43;98027.09;4345403;33;33271;-62
2023/04/14 11:38:31;;;;;;;5.80;1.98;;;;;;;23.62;36.42;98020.84;4344885;33;33531;-61
2023/04/14 11:40:58;;;;;;;6.72;1.80;;;;;;;23.63;36.41;98021.66;4344748;33;34326;-60
2023/04/14 11:43:29;;;;;;;4.60;1.92;;;;;;;23.62;36.41;98026.28;4332837;33;34017;-61
2023/04/14 11:45:59;;;;;;;4.40;1.98;;;;;;;23.61;36.42;98024.66;4344512;33;34160;-61